createdAt,value
2018-05-24T00:00:20.112Z,0.00
2018-05-24T00:01:20.048Z,0.00
2018-05-24T00:02:19.928Z,0.00
2018-05-24T00:03:20.468Z,0.00
2018-05-24T00:04:19.747Z,0.00
2018-05-24T00:05:19.769Z,0.00
2018-05-24T00:06:19.598Z,0.00
2018-05-24T00:07:19.478Z,0.00
2018-05-24T00:08:19.382Z,0.00
2018-05-24T00:09:19.295Z,0.00
2018-05-24T00:10:19.207Z,0.00
2018-05-24T00:11:19.147Z,0.00
2018-05-24T00:12:19.024Z,0.00
2018-05-24T00:13:18.933Z,0.00
2018-05-24T00:14:18.842Z,0.00
2018-05-24T00:15:19.471Z,0.00
2018-05-24T00:16:18.694Z,0.00
2018-05-24T00:17:18.569Z,0.00
2018-05-24T00:18:18.480Z,0.00
2018-05-24T00:19:18.491Z,0.00
2018-05-24T00:20:20.972Z,0.00
2018-05-24T00:21:18.243Z,0.00
2018-05-24T00:22:18.118Z,0.00
2018-05-24T00:23:18.033Z,0.00
2018-05-24T00:24:17.938Z,0.00
2018-05-24T00:25:17.850Z,0.00
2018-05-24T00:26:17.898Z,0.00
2018-05-24T00:27:18.532Z,0.00
2018-05-24T00:28:17.579Z,0.00
2018-05-24T00:29:17.485Z,0.00
2018-05-24T00:30:17.398Z,0.00
2018-05-24T00:31:17.336Z,0.00
2018-05-24T00:32:17.223Z,0.00
2018-05-24T00:33:17.220Z,0.00
2018-05-24T00:34:17.035Z,0.00
2018-05-24T00:35:16.945Z,0.00
2018-05-24T00:36:16.885Z,0.00
2018-05-24T00:37:16.764Z,0.00
2018-05-24T00:38:16.677Z,0.00
2018-05-24T00:39:17.533Z,0.00
2018-05-24T00:40:16.587Z,0.00
2018-05-24T00:41:16.431Z,0.00
2018-05-24T00:42:16.310Z,0.00
2018-05-24T00:43:16.222Z,0.00
2018-05-24T00:44:16.131Z,0.00
2018-05-24T00:45:16.044Z,0.00
2018-05-24T00:46:15.953Z,0.00
2018-05-24T00:47:15.957Z,0.00
2018-05-24T00:48:15.770Z,0.00
2018-05-24T00:49:15.683Z,0.00
2018-05-24T00:50:15.594Z,0.00
2018-05-24T00:51:15.507Z,0.00
2018-05-24T00:52:15.446Z,0.00
2018-05-24T00:53:15.317Z,0.00
2018-05-24T00:54:15.321Z,0.00
2018-05-24T00:55:15.979Z,0.00
2018-05-24T00:56:15.055Z,0.00
2018-05-24T00:57:14.984Z,0.00
2018-05-24T00:58:14.869Z,0.00
2018-05-24T00:59:14.776Z,0.00
2018-05-24T01:00:14.699Z,0.00
2018-05-24T01:01:14.694Z,0.00
2018-05-24T01:02:14.538Z,0.00
2018-05-24T01:03:14.419Z,0.00
2018-05-24T01:04:14.328Z,0.00
2018-05-24T01:05:14.237Z,0.00
2018-05-24T01:06:14.146Z,0.00
2018-05-24T01:07:14.084Z,0.00
2018-05-24T01:08:14.983Z,0.00
2018-05-24T01:09:13.875Z,0.00
2018-05-24T01:10:13.784Z,0.00
2018-05-24T01:11:13.694Z,0.00
2018-05-24T01:12:13.640Z,0.00
2018-05-24T01:13:13.515Z,0.00
2018-05-24T01:14:13.425Z,0.00
2018-05-24T01:15:13.428Z,0.00
2018-05-24T01:16:13.242Z,0.00
2018-05-24T01:17:13.183Z,0.00
2018-05-24T01:18:13.073Z,0.00
2018-05-24T01:19:12.971Z,0.00
2018-05-24T01:20:12.883Z,0.00
2018-05-24T01:21:12.793Z,0.00
2018-05-24T01:22:12.828Z,0.00
2018-05-24T01:23:12.612Z,0.00
2018-05-24T01:24:12.521Z,0.00
2018-05-24T01:25:12.430Z,0.00
2018-05-24T01:26:12.342Z,0.00
2018-05-24T01:27:12.284Z,0.00
2018-05-24T01:28:12.269Z,0.00
2018-05-24T01:29:12.071Z,0.00
2018-05-24T01:30:11.988Z,0.00
2018-05-24T01:31:11.891Z,0.00
2018-05-24T01:32:11.834Z,0.00
2018-05-24T01:33:11.709Z,0.00
2018-05-24T01:34:11.622Z,0.00
2018-05-24T01:35:11.627Z,0.00
2018-05-24T01:36:11.439Z,0.00
2018-05-24T01:37:11.383Z,0.00
2018-05-24T01:38:11.265Z,0.00
2018-05-24T01:39:11.171Z,0.00
2018-05-24T01:40:11.087Z,0.00
2018-05-24T01:41:10.990Z,0.00
2018-05-24T01:42:10.928Z,0.00
2018-05-24T01:43:10.808Z,0.00
2018-05-24T01:44:10.722Z,0.00
2018-05-24T01:45:10.631Z,0.00
2018-05-24T01:46:10.539Z,0.00
2018-05-24T01:47:10.478Z,0.00
2018-05-24T01:48:10.358Z,0.00
2018-05-24T01:49:10.269Z,0.00
2018-05-24T01:50:10.187Z,0.00
2018-05-24T01:51:10.093Z,0.00
2018-05-24T01:52:10.505Z,0.00
2018-05-24T01:53:09.939Z,0.00
2018-05-24T01:54:09.817Z,0.00
2018-05-24T01:55:09.724Z,0.00
2018-05-24T01:56:09.632Z,0.00
2018-05-24T01:57:09.549Z,0.00
2018-05-24T01:58:09.487Z,0.00
2018-05-24T01:59:09.368Z,0.00
2018-05-24T02:00:09.273Z,0.00
2018-05-24T02:01:09.181Z,0.00
2018-05-24T02:02:09.094Z,0.00
2018-05-24T02:03:09.033Z,0.00
2018-05-24T02:04:08.912Z,0.00
2018-05-24T02:05:08.822Z,0.00
2018-05-24T02:06:08.730Z,0.00
2018-05-24T02:07:08.641Z,0.00
2018-05-24T02:08:08.583Z,0.00
2018-05-24T02:09:08.458Z,0.00
2018-05-24T02:10:08.368Z,0.00
2018-05-24T02:11:08.293Z,0.00
2018-05-24T02:12:08.189Z,0.00
2018-05-24T02:13:08.132Z,0.00
2018-05-24T02:14:08.009Z,0.00
2018-05-24T02:15:07.919Z,0.00
2018-05-24T02:16:08.556Z,0.00
2018-05-24T02:17:07.859Z,0.00
2018-05-24T02:18:07.674Z,0.00
2018-05-24T02:19:07.556Z,0.00
2018-05-24T02:20:07.464Z,0.00
2018-05-24T02:21:07.370Z,0.00
2018-05-24T02:22:08.061Z,0.00
2018-05-24T02:23:07.224Z,0.00
2018-05-24T02:24:07.106Z,0.00
2018-05-24T02:25:07.014Z,0.00
2018-05-24T02:26:06.922Z,0.00
2018-05-24T02:27:06.837Z,0.00
2018-05-24T02:28:06.771Z,0.00
2018-05-24T02:29:06.732Z,0.00
2018-05-24T02:30:06.565Z,0.00
2018-05-24T02:31:06.472Z,0.00
2018-05-24T02:32:08.006Z,0.00
2018-05-24T02:33:07.006Z,0.00
2018-05-24T02:34:06.201Z,0.00
2018-05-24T02:35:06.110Z,4.00
2018-05-24T02:36:06.177Z,4.00
2018-05-24T02:37:05.927Z,0.00
2018-05-24T02:38:05.838Z,0.00
2018-05-24T02:39:05.777Z,4.00
2018-05-24T02:40:05.663Z,4.00
2018-05-24T02:41:05.566Z,4.00
2018-05-24T02:42:05.485Z,4.00
2018-05-24T02:43:05.435Z,8.00
2018-05-24T02:44:06.067Z,8.00
2018-05-24T02:45:05.475Z,12.00
2018-05-24T02:46:05.112Z,12.00
2018-05-24T02:47:05.028Z,12.00
2018-05-24T02:48:04.932Z,12.00
2018-05-24T02:49:04.868Z,12.00
2018-05-24T02:50:04.772Z,16.00
2018-05-24T02:51:04.661Z,20.00
2018-05-24T02:52:04.569Z,24.00
2018-05-24T02:53:04.481Z,28.00
2018-05-24T02:54:04.420Z,28.00
2018-05-24T02:55:04.295Z,36.00
2018-05-24T02:56:05.011Z,36.00
2018-05-24T02:57:05.067Z,40.00
2018-05-24T02:58:04.024Z,44.00
2018-05-24T02:59:04.356Z,52.00
2018-05-24T03:00:03.841Z,60.00
2018-05-24T03:01:03.752Z,60.00
2018-05-24T03:02:03.661Z,68.00
2018-05-24T03:03:03.570Z,76.00
2018-05-24T03:04:03.512Z,84.00
2018-05-24T03:05:04.014Z,92.00
2018-05-24T03:06:03.397Z,96.00
2018-05-24T03:07:03.208Z,104.00
2018-05-24T03:08:03.121Z,112.00
2018-05-24T03:09:03.058Z,116.00
2018-05-24T03:10:02.935Z,124.00
2018-05-24T03:11:02.845Z,124.00
2018-05-24T03:12:02.753Z,132.00
2018-05-24T03:13:02.782Z,136.00
2018-05-24T03:14:02.608Z,144.00
2018-05-24T03:15:02.481Z,148.00
2018-05-24T03:16:02.392Z,160.00
2018-05-24T03:17:02.301Z,168.00
2018-05-24T03:18:02.212Z,180.00
2018-05-24T03:19:02.153Z,188.00
2018-05-24T03:20:02.124Z,200.00
2018-05-24T03:21:01.939Z,212.00
2018-05-24T03:22:01.851Z,228.00
2018-05-24T03:23:01.757Z,240.00
2018-05-24T03:24:01.700Z,252.00
2018-05-24T03:25:01.576Z,268.00
2018-05-24T03:26:01.487Z,284.00
2018-05-24T03:27:01.491Z,308.00
2018-05-24T03:28:01.308Z,332.00
2018-05-24T03:29:01.241Z,356.00
2018-05-24T03:30:01.124Z,384.00
2018-05-24T03:31:01.037Z,412.00
2018-05-24T03:32:00.944Z,432.00
2018-05-24T03:33:00.853Z,452.00
2018-05-24T03:34:00.873Z,476.00
2018-05-24T03:35:00.673Z,500.00
2018-05-24T03:36:00.578Z,524.00
2018-05-24T03:37:00.492Z,548.00
2018-05-24T03:38:00.403Z,568.00
2018-05-24T03:39:00.342Z,588.00
2018-05-24T03:40:00.221Z,596.00
2018-05-24T03:41:00.128Z,608.00
2018-05-24T03:42:00.133Z,612.00
2018-05-24T03:42:59.947Z,632.00
2018-05-24T03:43:59.934Z,652.00
2018-05-24T03:44:59.769Z,672.00
2018-05-24T03:45:59.676Z,696.00
2018-05-24T03:46:59.584Z,716.00
2018-05-24T03:47:59.496Z,716.00
2018-05-24T03:48:59.506Z,728.00
2018-05-24T03:49:59.345Z,732.00
2018-05-24T03:50:59.224Z,736.00
2018-05-24T03:51:59.134Z,752.00
2018-05-24T03:52:59.043Z,764.00
2018-05-24T03:53:58.983Z,772.00
2018-05-24T03:54:58.862Z,776.00
2018-05-24T03:55:58.881Z,772.00
2018-05-24T03:56:59.581Z,776.00
2018-05-24T03:57:58.589Z,780.00
2018-05-24T03:58:58.503Z,788.00
2018-05-24T03:59:58.442Z,796.00
2018-05-24T04:00:58.318Z,804.00
2018-05-24T04:01:58.230Z,812.00
2018-05-24T04:02:58.236Z,832.00
2018-05-24T04:03:58.048Z,844.00
2018-05-24T04:04:57.991Z,880.00
2018-05-24T04:05:57.866Z,908.00
2018-05-24T04:06:57.777Z,940.00
2018-05-24T04:07:57.686Z,968.00
2018-05-24T04:08:57.599Z,1008.00
2018-05-24T04:09:57.634Z,1044.00
2018-05-24T04:10:57.418Z,1080.00
2018-05-24T04:11:58.084Z,1132.00
2018-05-24T04:12:58.585Z,1192.00
2018-05-24T04:13:57.144Z,1236.00
2018-05-24T04:14:57.086Z,1280.00
2018-05-24T04:15:56.968Z,1300.00
2018-05-24T04:16:56.981Z,1320.00
2018-05-24T04:17:56.782Z,1312.00
2018-05-24T04:18:56.691Z,1284.00
2018-05-24T04:19:56.633Z,1244.00
2018-05-24T04:20:56.511Z,1188.00
2018-05-24T04:21:56.421Z,1148.00
2018-05-24T04:22:56.329Z,1100.00
2018-05-24T04:23:56.332Z,1080.00
2018-05-24T04:24:56.179Z,1076.00
2018-05-24T04:25:56.063Z,1100.00
2018-05-24T04:26:55.968Z,1124.00
2018-05-24T04:27:55.879Z,1184.00
2018-05-24T04:28:55.795Z,1212.00
2018-05-24T04:29:55.701Z,1268.00
2018-05-24T04:30:55.735Z,1320.00
2018-05-24T04:31:55.516Z,1384.00
2018-05-24T04:32:55.478Z,1468.00
2018-05-24T04:33:56.035Z,1536.00
2018-05-24T04:34:55.251Z,1596.00
2018-05-24T04:35:55.196Z,1656.00
2018-05-24T04:36:55.076Z,1692.00
2018-05-24T04:37:55.086Z,1708.00
2018-05-24T04:38:54.885Z,1724.00
2018-05-24T04:39:54.796Z,1732.00
2018-05-24T04:40:54.741Z,1732.00
2018-05-24T04:41:54.616Z,1756.00
2018-05-24T04:42:54.526Z,1788.00
2018-05-24T04:43:54.433Z,1860.00
2018-05-24T04:44:54.347Z,1948.00
2018-05-24T04:45:54.286Z,2012.00
2018-05-24T04:46:54.167Z,2132.00
2018-05-24T04:47:54.073Z,2248.00
2018-05-24T04:48:53.982Z,2384.00
2018-05-24T04:49:53.898Z,2504.00
2018-05-24T04:50:53.835Z,2592.00
2018-05-24T04:51:53.714Z,2704.00
2018-05-24T04:52:53.624Z,2808.00
2018-05-24T04:53:53.537Z,2840.00
2018-05-24T04:54:53.447Z,2912.00
2018-05-24T04:55:53.382Z,2904.00
2018-05-24T04:56:53.264Z,2944.00
2018-05-24T04:57:53.204Z,2904.00
2018-05-24T04:58:53.083Z,2924.00
2018-05-24T04:59:52.993Z,2972.00
2018-05-24T05:00:52.938Z,3108.00
2018-05-24T05:01:53.605Z,3192.00
2018-05-24T05:02:52.724Z,3312.00
2018-05-24T05:03:52.630Z,3396.00
2018-05-24T05:04:52.544Z,3476.00
2018-05-24T05:05:52.480Z,3644.00
2018-05-24T05:06:52.365Z,3844.00
2018-05-24T05:07:52.272Z,4164.00
2018-05-24T05:08:52.181Z,4352.00
2018-05-24T05:09:52.090Z,4244.00
2018-05-24T05:10:52.036Z,4252.00
2018-05-24T05:11:51.912Z,4132.00
2018-05-24T05:12:51.820Z,4024.00
2018-05-24T05:13:53.545Z,3824.00
2018-05-24T05:14:51.653Z,3644.00
2018-05-24T05:15:51.588Z,3520.00
2018-05-24T05:16:51.500Z,3528.00
2018-05-24T05:17:51.373Z,3624.00
2018-05-24T05:18:52.047Z,3712.00
2018-05-24T05:19:51.189Z,3752.00
2018-05-24T05:20:51.132Z,3784.00
2018-05-24T05:21:51.012Z,4032.00
2018-05-24T05:22:50.922Z,4420.00
2018-05-24T05:23:50.833Z,4848.00
2018-05-24T05:24:50.741Z,5196.00
2018-05-24T05:25:50.690Z,5568.00
2018-05-24T05:26:50.562Z,5852.00
2018-05-24T05:27:51.049Z,5976.00
2018-05-24T05:28:51.049Z,6012.00
2018-05-24T05:29:50.294Z,5940.00
2018-05-24T05:30:50.234Z,5764.00
2018-05-24T05:31:50.112Z,5616.00
2018-05-24T05:32:50.026Z,5420.00
2018-05-24T05:33:49.933Z,5336.00
2018-05-24T05:34:50.551Z,5256.00
2018-05-24T05:35:49.787Z,5100.00
2018-05-24T05:36:49.664Z,5308.00
2018-05-24T05:37:49.575Z,5652.00
2018-05-24T05:38:49.483Z,6256.00
2018-05-24T05:39:49.407Z,6292.00
2018-05-24T05:40:49.311Z,6176.00
2018-05-24T05:41:49.247Z,6136.00
2018-05-24T05:42:49.126Z,6156.00
2018-05-24T05:43:49.036Z,5864.00
2018-05-24T05:44:49.014Z,5512.00
2018-05-24T05:45:48.859Z,5400.00
2018-05-24T05:46:48.897Z,5556.00
2018-05-24T05:47:48.680Z,6008.00
2018-05-24T05:48:48.589Z,6112.00
2018-05-24T05:49:48.503Z,6284.00
2018-05-24T05:50:48.411Z,5968.00
2018-05-24T05:51:48.355Z,5172.00
2018-05-24T05:52:48.230Z,4452.00
2018-05-24T05:53:48.237Z,4100.00
2018-05-24T05:54:48.051Z,3836.00
2018-05-24T05:55:47.965Z,3676.00
2018-05-24T05:56:47.901Z,3456.00
2018-05-24T05:57:47.813Z,3364.00
2018-05-24T05:58:47.695Z,3260.00
2018-05-24T05:59:47.606Z,3212.00
2018-05-24T06:00:47.625Z,3224.00
2018-05-24T06:01:47.465Z,3328.00
2018-05-24T06:02:47.334Z,3368.00
2018-05-24T06:03:47.245Z,3764.00
2018-05-24T06:04:47.155Z,4452.00
2018-05-24T06:05:47.065Z,5056.00
2018-05-24T06:06:47.009Z,5424.00
2018-05-24T06:07:46.984Z,5388.00
2018-05-24T06:08:46.798Z,5412.00
2018-05-24T06:09:46.706Z,6016.00
2018-05-24T06:10:46.619Z,6452.00
2018-05-24T06:11:46.558Z,6528.00
2018-05-24T06:12:46.438Z,6300.00
2018-05-24T06:13:46.369Z,6040.00
2018-05-24T06:14:46.355Z,5940.00
2018-05-24T06:15:46.172Z,5964.00
2018-05-24T06:16:46.117Z,6256.00
2018-05-24T06:17:46.001Z,6520.00
2018-05-24T06:18:45.903Z,7020.00
2018-05-24T06:19:45.814Z,7692.00
2018-05-24T06:20:45.726Z,7904.00
2018-05-24T06:21:45.744Z,7744.00
2018-05-24T06:22:45.546Z,7748.00
2018-05-24T06:23:45.458Z,7700.00
2018-05-24T06:24:45.367Z,7580.00
2018-05-24T06:25:45.281Z,7128.00
2018-05-24T06:26:45.224Z,6492.00
2018-05-24T06:27:45.099Z,6096.00
2018-05-24T06:28:45.106Z,6292.00
2018-05-24T06:29:44.919Z,7192.00
2018-05-24T06:30:44.834Z,7988.00
2018-05-24T06:31:44.746Z,7836.00
2018-05-24T06:32:44.685Z,7024.00
2018-05-24T06:33:44.564Z,6780.00
2018-05-24T06:34:44.477Z,7244.00
2018-05-24T06:35:44.480Z,8188.00
2018-05-24T06:36:44.297Z,9248.00
2018-05-24T06:37:44.245Z,9444.00
2018-05-24T06:38:44.121Z,9648.00
2018-05-24T06:39:44.042Z,10112.00
2018-05-24T06:40:43.942Z,10512.00
2018-05-24T06:41:43.855Z,10716.00
2018-05-24T06:42:43.794Z,11344.00
2018-05-24T06:43:43.736Z,11900.00
2018-05-24T06:44:43.584Z,13028.00
2018-05-24T06:45:43.496Z,14644.00
2018-05-24T06:46:43.411Z,15476.00
2018-05-24T06:47:43.352Z,15780.00
2018-05-24T06:48:44.071Z,15400.00
2018-05-24T06:49:43.143Z,14988.00
2018-05-24T06:50:43.622Z,14504.00
2018-05-24T06:51:42.965Z,14348.00
2018-05-24T06:52:42.909Z,14612.00
2018-05-24T06:53:42.885Z,15328.00
2018-05-24T06:54:42.700Z,16136.00
2018-05-24T06:55:42.612Z,17504.00
2018-05-24T06:56:42.523Z,18624.00
2018-05-24T06:57:42.466Z,20640.00
2018-05-24T06:58:43.116Z,20800.00
2018-05-24T06:59:42.255Z,20928.00
2018-05-24T07:00:42.166Z,20416.00
2018-05-24T07:01:42.079Z,20032.00
2018-05-24T07:02:42.622Z,19872.00
2018-05-24T07:03:41.899Z,19808.00
2018-05-24T07:04:41.812Z,19680.00
2018-05-24T07:05:41.724Z,19264.00
2018-05-24T07:06:41.634Z,19072.00
2018-05-24T07:07:41.577Z,18688.00
2018-05-24T07:08:41.462Z,18176.00
2018-05-24T07:09:41.369Z,17600.00
2018-05-24T07:10:42.131Z,16812.00
2018-05-24T07:11:41.195Z,16044.00
2018-05-24T07:12:41.107Z,15348.00
2018-05-24T07:13:41.051Z,14688.00
2018-05-24T07:14:40.929Z,13948.00
2018-05-24T07:15:40.841Z,12844.00
2018-05-24T07:16:40.752Z,11880.00
2018-05-24T07:17:40.665Z,11036.00
2018-05-24T07:18:40.717Z,11008.00
2018-05-24T07:19:40.489Z,11720.00
2018-05-24T07:20:40.400Z,11832.00
2018-05-24T07:21:40.313Z,11896.00
2018-05-24T07:22:40.260Z,11640.00
2018-05-24T07:23:40.168Z,11056.00
2018-05-24T07:24:40.081Z,10504.00
2018-05-24T07:25:39.960Z,10264.00
2018-05-24T07:26:39.872Z,9780.00
2018-05-24T07:27:39.786Z,8964.00
2018-05-24T07:28:40.584Z,7824.00
2018-05-24T07:29:39.605Z,6448.00
2018-05-24T07:30:39.519Z,5216.00
2018-05-24T07:31:39.433Z,4588.00
2018-05-24T07:32:41.583Z,4464.00
2018-05-24T07:33:39.286Z,4136.00
2018-05-24T07:34:39.167Z,3844.00
2018-05-24T07:35:39.082Z,3724.00
2018-05-24T07:36:38.995Z,3784.00
2018-05-24T07:37:38.947Z,4072.00
2018-05-24T07:38:38.847Z,4392.00
2018-05-24T07:39:38.734Z,4424.00
2018-05-24T07:40:38.638Z,4604.00
2018-05-24T07:41:38.551Z,4904.00
2018-05-24T07:42:38.461Z,5440.00
2018-05-24T07:43:38.404Z,5764.00
2018-05-24T07:44:38.287Z,6268.00
2018-05-24T07:45:38.197Z,6892.00
2018-05-24T07:46:38.110Z,7132.00
2018-05-24T07:47:38.021Z,7152.00
2018-05-24T07:48:39.643Z,6860.00
2018-05-24T07:49:37.844Z,6560.00
2018-05-24T07:50:37.752Z,5684.00
2018-05-24T07:51:37.663Z,5076.00
2018-05-24T07:52:37.574Z,4636.00
2018-05-24T07:53:38.090Z,4188.00
2018-05-24T07:54:37.394Z,3600.00
2018-05-24T07:55:37.308Z,3156.00
2018-05-24T07:56:37.219Z,2984.00
2018-05-24T07:57:37.131Z,3112.00
2018-05-24T07:58:37.152Z,3296.00
2018-05-24T07:59:36.949Z,3480.00
2018-05-24T08:00:36.861Z,3880.00
2018-05-24T08:01:36.852Z,4220.00
2018-05-24T08:02:36.682Z,4780.00
2018-05-24T08:03:36.627Z,5352.00
2018-05-24T08:04:36.504Z,5320.00
2018-05-24T08:05:36.507Z,5432.00
2018-05-24T08:06:36.324Z,5884.00
2018-05-24T08:07:36.232Z,6184.00
2018-05-24T08:08:36.218Z,6436.00
2018-05-24T08:09:36.056Z,6360.00
2018-05-24T08:10:35.965Z,6224.00
2018-05-24T08:11:35.875Z,6056.00
2018-05-24T08:12:35.877Z,5856.00
2018-05-24T08:13:35.725Z,5736.00
2018-05-24T08:14:35.614Z,5400.00
2018-05-24T08:15:35.519Z,5220.00
2018-05-24T08:16:35.426Z,3972.00
2018-05-24T08:17:35.336Z,3448.00
2018-05-24T08:18:35.245Z,2972.00
2018-05-24T08:19:35.274Z,2640.00
2018-05-24T08:20:35.066Z,2432.00
2018-05-24T08:21:34.973Z,2368.00
2018-05-24T08:22:35.651Z,2572.00
2018-05-24T08:23:34.797Z,2588.00
2018-05-24T08:24:34.738Z,2596.00
2018-05-24T08:25:35.156Z,2552.00
2018-05-24T08:26:34.618Z,2952.00
2018-05-24T08:27:34.433Z,2796.00
2018-05-24T08:28:34.347Z,2680.00
2018-05-24T08:29:34.286Z,2656.00
2018-05-24T08:30:34.164Z,2620.00
2018-05-24T08:31:34.072Z,2972.00
2018-05-24T08:32:33.983Z,2728.00
2018-05-24T08:33:33.984Z,2696.00
2018-05-24T08:34:33.836Z,2280.00
2018-05-24T08:35:33.712Z,2032.00
2018-05-24T08:36:33.624Z,2032.00
2018-05-24T08:37:33.533Z,2120.00
2018-05-24T08:38:33.442Z,2268.00
2018-05-24T08:39:33.387Z,2360.00
2018-05-24T08:40:33.388Z,2956.00
2018-05-24T08:41:33.169Z,3844.00
2018-05-24T08:42:33.079Z,3912.00
2018-05-24T08:43:32.998Z,3380.00
2018-05-24T08:44:33.602Z,3296.00
2018-05-24T08:45:32.808Z,3696.00
2018-05-24T08:46:32.719Z,3740.00
2018-05-24T08:47:32.719Z,4216.00
2018-05-24T08:48:32.539Z,4436.00
2018-05-24T08:49:32.481Z,3616.00
2018-05-24T08:50:32.358Z,3524.00
2018-05-24T08:51:32.268Z,3756.00
2018-05-24T08:52:32.180Z,4224.00
2018-05-24T08:53:32.086Z,3920.00
2018-05-24T08:54:32.030Z,2892.00
2018-05-24T08:55:31.907Z,2812.00
2018-05-24T08:56:31.816Z,2716.00
2018-05-24T08:57:31.725Z,2888.00
2018-05-24T08:58:31.636Z,3444.00
2018-05-24T08:59:31.577Z,3860.00
2018-05-24T09:00:31.455Z,3200.00
2018-05-24T09:01:31.543Z,2224.00
2018-05-24T09:02:31.275Z,1988.00
2018-05-24T09:03:31.186Z,2012.00
2018-05-24T09:07:14.526Z,3752.00
2018-05-24T09:08:14.022Z,3644.00
2018-05-24T09:09:13.957Z,2916.00
2018-05-24T09:10:13.837Z,2968.00
2018-05-24T09:11:13.745Z,2228.00
2018-05-24T09:12:13.659Z,1468.00
2018-05-24T09:13:13.656Z,876.00
2018-05-24T09:14:13.479Z,544.00
2018-05-24T09:15:13.418Z,352.00
2018-05-24T09:16:13.295Z,280.00
2018-05-24T09:17:13.223Z,248.00
2018-05-24T09:18:13.116Z,264.00
2018-05-24T09:19:13.026Z,296.00
2018-05-24T09:20:13.102Z,292.00
2018-05-24T09:21:12.849Z,344.00
2018-05-24T09:22:12.760Z,384.00
2018-05-24T09:23:12.672Z,528.00
2018-05-24T09:24:12.580Z,592.00
2018-05-24T09:25:12.523Z,532.00
2018-05-24T09:26:12.401Z,432.00
2018-05-24T09:27:12.410Z,332.00
2018-05-24T09:28:12.226Z,336.00
2018-05-24T09:29:12.130Z,360.00
2018-05-24T09:30:12.074Z,340.00
2018-05-24T09:31:11.955Z,484.00
2018-05-24T09:32:11.861Z,892.00
2018-05-24T09:33:11.771Z,1600.00
2018-05-24T09:34:11.775Z,1344.00
2018-05-24T09:35:11.621Z,1180.00
2018-05-24T09:36:11.508Z,1816.00
2018-05-24T09:37:11.412Z,2372.00
2018-05-24T09:38:11.321Z,2296.00
2018-05-24T09:39:11.247Z,3100.00
2018-05-24T09:40:11.197Z,2844.00
2018-05-24T09:41:11.052Z,2408.00
2018-05-24T09:42:10.967Z,2176.00
2018-05-24T09:43:10.875Z,1896.00
2018-05-24T09:44:10.781Z,1444.00
2018-05-24T09:45:10.722Z,1760.00
2018-05-24T09:46:10.601Z,2120.00
2018-05-24T09:47:10.584Z,1992.00
2018-05-24T09:48:10.424Z,1788.00
2018-05-24T09:49:10.333Z,1992.00
2018-05-24T09:50:10.271Z,2580.00
2018-05-24T09:51:10.151Z,2652.00
2018-05-24T09:52:10.061Z,1756.00
2018-05-24T09:53:09.971Z,1204.00
2018-05-24T09:54:09.882Z,1040.00
2018-05-24T09:55:09.830Z,1024.00
2018-05-24T09:56:09.699Z,880.00
2018-05-24T09:57:09.609Z,1116.00
2018-05-24T09:58:09.518Z,1324.00
2018-05-24T09:59:09.434Z,1844.00
2018-05-24T10:00:09.390Z,1748.00
2018-05-24T10:01:09.251Z,2224.00
2018-05-24T10:02:09.158Z,2348.00
2018-05-24T10:03:09.069Z,1616.00
2018-05-24T10:04:08.979Z,1368.00
2018-05-24T10:05:08.919Z,1748.00
2018-05-24T10:06:08.798Z,1984.00
2018-05-24T10:07:08.785Z,1460.00
2018-05-24T10:08:08.619Z,1436.00
2018-05-24T10:09:08.530Z,1484.00
2018-05-24T10:10:08.439Z,1236.00
2018-05-24T10:11:08.374Z,944.00
2018-05-24T10:12:08.256Z,752.00
2018-05-24T10:13:08.165Z,680.00
2018-05-24T10:14:08.077Z,792.00
2018-05-24T10:15:07.988Z,964.00
2018-05-24T10:16:08.042Z,820.00
2018-05-24T10:17:07.809Z,724.00
2018-05-24T10:18:07.718Z,984.00
2018-05-24T10:19:07.626Z,1292.00
2018-05-24T10:20:07.539Z,1356.00
2018-05-24T10:21:07.478Z,1084.00
2018-05-24T10:22:07.359Z,960.00
2018-05-24T10:23:07.265Z,1040.00
2018-05-24T10:24:07.175Z,1148.00
2018-05-24T10:25:07.088Z,1408.00
2018-05-24T10:26:07.028Z,1664.00
2018-05-24T10:27:06.909Z,1584.00
2018-05-24T10:28:06.819Z,1912.00
2018-05-24T10:29:06.730Z,2048.00
2018-05-24T10:30:06.640Z,1768.00
2018-05-24T10:31:06.580Z,2188.00
2018-05-24T10:32:06.462Z,3032.00
2018-05-24T10:33:06.373Z,3600.00
2018-05-24T10:34:06.280Z,4308.00
2018-05-24T10:35:06.193Z,3696.00
2018-05-24T10:36:06.132Z,3456.00
2018-05-24T10:37:06.014Z,3240.00
2018-05-24T10:38:05.924Z,2508.00
2018-05-24T10:39:05.832Z,2072.00
2018-05-24T10:40:05.741Z,1908.00
2018-05-24T10:41:05.690Z,2012.00
2018-05-24T10:42:05.564Z,2012.00
2018-05-24T10:43:05.561Z,2236.00
2018-05-24T10:44:05.383Z,1988.00
2018-05-24T10:45:05.305Z,2028.00
2018-05-24T10:46:05.233Z,2100.00
2018-05-24T10:47:05.115Z,2108.00
2018-05-24T10:48:05.028Z,1908.00
2018-05-24T10:49:04.935Z,1624.00
2018-05-24T10:50:04.849Z,1660.00
2018-05-24T10:51:04.817Z,1624.00
2018-05-24T10:52:04.666Z,1768.00
2018-05-24T10:53:04.578Z,2120.00
2018-05-24T10:54:04.571Z,1772.00
2018-05-24T10:55:04.401Z,1512.00
2018-05-24T10:56:04.362Z,1456.00
2018-05-24T10:57:04.311Z,1256.00
2018-05-24T10:58:04.134Z,1128.00
2018-05-24T10:59:04.039Z,1156.00
2018-05-24T11:00:03.951Z,1148.00
2018-05-24T11:01:03.891Z,1124.00
2018-05-24T11:02:03.773Z,1000.00
2018-05-24T11:03:03.738Z,1020.00
2018-05-24T11:04:03.684Z,884.00
2018-05-24T11:05:03.503Z,760.00
2018-05-24T11:06:03.444Z,692.00
2018-05-24T11:07:03.324Z,612.00
2018-05-24T11:08:03.235Z,628.00
2018-05-24T11:09:03.147Z,616.00
2018-05-24T11:10:03.056Z,676.00
2018-05-24T11:11:03.069Z,660.00
2018-05-24T11:12:02.911Z,672.00
2018-05-24T11:13:02.787Z,780.00
2018-05-24T11:14:02.699Z,892.00
2018-05-24T11:15:02.608Z,864.00
2018-05-24T11:16:02.549Z,668.00
2018-05-24T11:17:02.429Z,612.00
2018-05-24T11:18:02.433Z,596.00
2018-05-24T11:19:02.251Z,544.00
2018-05-24T11:20:02.161Z,592.00
2018-05-24T11:21:02.130Z,520.00
2018-05-24T11:22:02.010Z,500.00
2018-05-24T11:23:01.907Z,476.00
2018-05-24T11:24:01.802Z,468.00
2018-05-24T11:25:01.799Z,460.00
2018-05-24T11:26:01.624Z,420.00
2018-05-24T11:27:01.563Z,428.00
2018-05-24T11:28:01.446Z,436.00
2018-05-24T11:29:01.355Z,452.00
2018-05-24T11:30:01.266Z,568.00
2018-05-24T11:31:01.175Z,708.00
2018-05-24T11:32:01.301Z,608.00
2018-05-24T11:33:00.995Z,656.00
2018-05-24T11:34:00.907Z,864.00
2018-05-24T11:35:00.816Z,904.00
2018-05-24T11:36:00.728Z,696.00
2018-05-24T11:37:00.788Z,616.00
2018-05-24T11:38:00.548Z,788.00
2018-05-24T11:39:00.551Z,1312.00
2018-05-24T11:40:00.369Z,2060.00
2018-05-24T11:41:00.278Z,1492.00
2018-05-24T11:42:00.221Z,1092.00
2018-05-24T11:43:00.168Z,896.00
2018-05-24T11:44:00.010Z,1024.00
2018-05-24T11:44:59.922Z,1388.00
2018-05-24T11:45:59.932Z,1444.00
2018-05-24T11:46:59.775Z,1212.00
2018-05-24T11:47:59.654Z,1008.00
2018-05-24T11:48:59.560Z,728.00
2018-05-24T11:49:59.474Z,608.00
2018-05-24T11:50:59.384Z,852.00
2018-05-24T11:51:59.334Z,1028.00
2018-05-24T11:52:59.203Z,1000.00
2018-05-24T11:53:59.111Z,884.00
2018-05-24T11:54:59.024Z,796.00
2018-05-24T11:55:58.934Z,724.00
2018-05-24T11:56:58.879Z,840.00
2018-05-24T11:57:58.755Z,868.00
2018-05-24T11:58:58.661Z,932.00
2018-05-24T11:59:58.574Z,960.00
2018-05-24T12:00:58.489Z,976.00
2018-05-24T12:01:58.429Z,1004.00
2018-05-24T12:02:58.305Z,724.00
2018-05-24T12:03:58.230Z,648.00
2018-05-24T12:04:58.127Z,600.00
2018-05-24T12:05:58.037Z,592.00
2018-05-24T12:06:57.989Z,680.00
2018-05-24T12:07:57.856Z,804.00
2018-05-24T12:08:57.768Z,976.00
2018-05-24T12:09:57.982Z,952.00
2018-05-24T12:10:57.586Z,884.00
2018-05-24T12:11:57.533Z,640.00
2018-05-24T12:12:57.413Z,604.00
2018-05-24T12:13:57.320Z,612.00
2018-05-24T12:14:57.231Z,644.00
2018-05-24T12:15:57.140Z,512.00
2018-05-24T12:16:57.076Z,528.00
2018-05-24T12:17:56.957Z,408.00
2018-05-24T12:18:56.867Z,288.00
2018-05-24T12:19:56.779Z,256.00
2018-05-24T12:20:56.691Z,224.00
2018-05-24T12:21:56.607Z,208.00
2018-05-24T12:22:56.541Z,196.00
2018-05-24T12:23:56.424Z,180.00
2018-05-24T12:24:56.339Z,156.00
2018-05-24T12:25:56.244Z,132.00
2018-05-24T12:26:56.158Z,156.00